Time,TemperatureF,DewpointF,PressureIn,WindDirection,WindDirectionDegrees,WindSpeedMPH,WindSpeedGustMPH,Humidity,HourlyPrecipIn,Conditions,Clouds,dailyrainin,SoftwareType,DateUTC
2013-10-03 00:02:00,77.4,71.8,30.01,ENE,69,1.0,8.0,83,0.00,,,0.00,meteohub,2013-10-03 04:02:00,
2013-10-03 00:07:00,77.4,71.8,30.01,ENE,69,3.0,8.0,83,0.00,,,0.00,meteohub,2013-10-03 04:07:00,
2013-10-03 00:12:00,77.2,71.6,30.01,ENE,70,3.0,7.0,83,0.00,,,0.00,meteohub,2013-10-03 04:12:00,
2013-10-03 00:17:00,77.2,72.0,30.01,ENE,71,2.0,7.0,84,0.00,,,0.00,meteohub,2013-10-03 04:17:00,
2013-10-03 00:22:00,77.0,71.8,30.02,ENE,71,3.0,7.0,84,0.00,,,0.00,meteohub,2013-10-03 04:22:00,
2013-10-03 00:27:00,76.8,71.6,30.01,ENE,68,1.0,7.0,84,0.00,,,0.00,meteohub,2013-10-03 04:27:00,
2013-10-03 00:32:00,76.6,71.4,30.01,ENE,69,1.0,7.0,84,0.00,,,0.00,meteohub,2013-10-03 04:32:00,
2013-10-03 00:37:00,76.6,71.8,30.01,East,93,3.0,9.0,85,0.00,,,0.00,meteohub,2013-10-03 04:37:00,
2013-10-03 00:42:00,76.5,71.6,30.01,East,84,5.0,9.0,85,0.00,,,0.00,meteohub,2013-10-03 04:42:00,
2013-10-03 00:47:00,76.5,71.6,30.01,ENE,75,3.0,7.0,85,0.00,,,0.00,meteohub,2013-10-03 04:47:00,
2013-10-03 00:52:00,76.5,71.6,30.01,ENE,78,2.0,9.0,85,0.00,,,0.00,meteohub,2013-10-03 04:52:00,
2013-10-03 00:57:00,76.3,71.8,30.01,East,86,3.0,9.0,86,0.00,,,0.00,meteohub,2013-10-03 04:57:00,
2013-10-03 01:02:00,76.3,71.8,30.01,East,88,5.0,9.0,86,0.00,,,0.00,meteohub,2013-10-03 05:02:00,
2013-10-03 01:07:00,76.3,71.8,30.01,East,84,3.0,7.0,86,0.00,,,0.00,meteohub,2013-10-03 05:07:00,
2013-10-03 01:12:00,76.1,71.6,30.01,East,85,1.0,6.0,86,0.00,,,0.00,meteohub,2013-10-03 05:12:00,
2013-10-03 01:17:00,75.9,71.4,30.01,ENE,62,1.0,7.0,86,0.00,,,0.00,meteohub,2013-10-03 05:17:00,
2013-10-03 01:22:00,75.9,71.8,30.01,NE,44,2.0,7.0,87,0.00,,,0.00,meteohub,2013-10-03 05:22:00,
2013-10-03 01:27:00,75.9,71.8,30.01,ENE,76,3.0,7.0,87,0.00,,,0.00,meteohub,2013-10-03 05:27:00,
2013-10-03 01:32:00,75.7,71.6,30.01,East,82,1.0,4.0,87,0.00,,,0.00,meteohub,2013-10-03 05:32:00,
2013-10-03 01:37:00,75.7,71.6,30.01,East,82,0.0,5.0,87,0.00,,,0.00,meteohub,2013-10-03 05:37:00,
2013-10-03 01:42:00,75.6,71.4,30.01,East,82,1.0,5.0,87,0.00,,,0.00,meteohub,2013-10-03 05:42:00,
2013-10-03 01:47:00,75.6,71.8,30.01,NE,45,1.0,5.0,88,0.00,,,0.00,meteohub,2013-10-03 05:47:00,
2013-10-03 01:52:00,75.4,71.6,30.01,NE,44,2.0,5.0,88,0.00,,,0.00,meteohub,2013-10-03 05:52:00,
2013-10-03 01:57:00,75.4,71.6,30.01,NE,46,1.0,5.0,88,0.00,,,0.00,meteohub,2013-10-03 05:57:00,
2013-10-03 02:02:00,75.2,71.4,30.00,ENE,58,1.0,4.0,88,0.00,,,0.00,meteohub,2013-10-03 06:02:00,
2013-10-03 02:07:00,75.0,71.2,30.00,NE,49,0.0,4.0,88,0.00,,,0.00,meteohub,2013-10-03 06:07:00,
2013-10-03 02:12:00,75.0,71.2,30.00,NE,53,2.0,4.0,88,0.00,,,0.00,meteohub,2013-10-03 06:12:00,
2013-10-03 02:17:00,74.8,71.4,30.00,NE,50,1.0,5.0,89,0.00,,,0.00,meteohub,2013-10-03 06:17:00,
2013-10-03 02:22:00,74.8,71.4,29.99,ENE,70,0.0,5.0,89,0.00,,,0.00,meteohub,2013-10-03 06:22:00,
2013-10-03 02:27:00,74.8,71.4,29.99,ENE,76,1.0,5.0,89,0.00,,,0.00,meteohub,2013-10-03 06:27:00,
2013-10-03 02:32:00,74.8,71.4,29.99,ENE,78,0.0,5.0,89,0.00,,,0.00,meteohub,2013-10-03 06:32:00,
2013-10-03 02:37:00,74.7,71.2,29.99,ENE,57,1.0,6.0,89,0.00,,,0.00,meteohub,2013-10-03 06:37:00,
2013-10-03 02:42:00,74.7,71.2,29.99,ENE,66,0.0,6.0,89,0.00,,,0.00,meteohub,2013-10-03 06:42:00,
2013-10-03 02:47:00,74.7,71.2,29.99,East,79,2.0,6.0,89,0.00,,,0.00,meteohub,2013-10-03 06:47:00,
2013-10-03 02:52:00,74.5,71.1,29.99,East,88,2.0,5.0,89,0.00,,,0.00,meteohub,2013-10-03 06:52:00,
2013-10-03 02:57:00,74.5,71.4,29.98,NE,53,2.0,6.0,90,0.00,,,0.00,meteohub,2013-10-03 06:57:00,
2013-10-03 03:02:00,74.5,71.4,29.98,NE,50,0.0,6.0,90,0.00,,,0.00,meteohub,2013-10-03 07:02:00,
2013-10-03 03:07:00,74.3,71.2,29.98,NE,46,1.0,6.0,90,0.00,,,0.00,meteohub,2013-10-03 07:07:00,
2013-10-03 03:12:00,74.1,71.1,29.98,ENE,68,2.0,4.0,90,0.00,,,0.00,meteohub,2013-10-03 07:12:00,
2013-10-03 03:17:00,74.1,71.1,29.98,ENE,68,1.0,5.0,90,0.00,,,0.00,meteohub,2013-10-03 07:17:00,
2013-10-03 03:22:00,73.9,70.9,29.98,ENE,60,2.0,5.0,90,0.00,,,0.00,meteohub,2013-10-03 07:22:00,
2013-10-03 03:27:00,73.9,70.9,29.97,ENE,78,1.0,5.0,90,0.00,,,0.00,meteohub,2013-10-03 07:27:00,
2013-10-03 03:32:00,73.9,70.9,29.97,East,85,3.0,5.0,90,0.00,,,0.00,meteohub,2013-10-03 07:32:00,
2013-10-03 03:37:00,73.9,70.9,29.97,ENE,76,1.0,5.0,90,0.00,,,0.00,meteohub,2013-10-03 07:37:00,
2013-10-03 03:42:00,73.8,70.7,29.97,East,84,2.0,5.0,90,0.00,,,0.00,meteohub,2013-10-03 07:42:00,
2013-10-03 03:47:00,73.8,70.9,29.97,ENE,65,1.0,6.0,91,0.00,,,0.00,meteohub,2013-10-03 07:47:00,
2013-10-03 03:52:00,73.8,70.9,29.96,ENE,77,4.0,6.0,91,0.00,,,0.00,meteohub,2013-10-03 07:52:00,
2013-10-03 03:57:00,73.8,70.9,29.96,ENE,67,1.0,6.0,91,0.00,,,0.00,meteohub,2013-10-03 07:57:00,
2013-10-03 04:02:00,73.8,70.9,29.96,East,81,3.0,5.0,91,0.00,,,0.00,meteohub,2013-10-03 08:02:00,
2013-10-03 04:07:00,73.6,70.7,29.96,East,79,3.0,6.0,91,0.00,,,0.00,meteohub,2013-10-03 08:07:00,
2013-10-03 04:12:00,73.6,70.7,29.95,ENE,74,0.0,7.0,91,0.00,,,0.00,meteohub,2013-10-03 08:12:00,
2013-10-03 04:17:00,73.6,70.7,29.95,East,80,1.0,7.0,91,0.00,,,0.00,meteohub,2013-10-03 08:17:00,
2013-10-03 04:22:00,73.6,70.7,29.95,NE,52,2.0,6.0,91,0.00,,,0.00,meteohub,2013-10-03 08:22:00,
2013-10-03 04:27:00,73.6,70.7,29.95,ENE,61,1.0,6.0,91,0.00,,,0.00,meteohub,2013-10-03 08:27:00,
2013-10-03 04:32:00,73.4,70.5,29.95,NE,55,0.0,5.0,91,0.00,,,0.00,meteohub,2013-10-03 08:32:00,
2013-10-03 04:37:00,73.4,70.5,29.95,NE,38,1.0,5.0,91,0.00,,,0.00,meteohub,2013-10-03 08:37:00,
2013-10-03 04:42:00,73.4,70.5,29.95,NE,43,3.0,5.0,91,0.00,,,0.00,meteohub,2013-10-03 08:42:00,
2013-10-03 04:47:00,73.2,70.5,29.94,NE,55,1.0,5.0,91,0.00,,,0.00,meteohub,2013-10-03 08:47:00,
2013-10-03 04:52:00,73.2,70.7,29.94,ENE,61,2.0,6.0,92,0.00,,,0.00,meteohub,2013-10-03 08:52:00,
2013-10-03 04:57:00,73.0,70.5,29.94,ENE,61,2.0,6.0,92,0.00,,,0.00,meteohub,2013-10-03 08:57:00,
2013-10-03 05:02:00,73.0,70.5,29.94,NE,52,3.0,5.0,92,0.00,,,0.00,meteohub,2013-10-03 09:02:00,
2013-10-03 05:07:00,73.0,70.5,29.94,NE,47,4.0,6.0,92,0.00,,,0.00,meteohub,2013-10-03 09:07:00,
2013-10-03 05:12:00,73.0,70.5,29.94,NE,52,1.0,6.0,92,0.00,,,0.00,meteohub,2013-10-03 09:12:00,
2013-10-03 05:17:00,73.0,70.5,29.94,East,80,2.0,6.0,92,0.00,,,0.00,meteohub,2013-10-03 09:17:00,
2013-10-03 05:22:00,72.9,70.3,29.95,ENE,59,3.0,5.0,92,0.00,,,0.00,meteohub,2013-10-03 09:22:00,
2013-10-03 05:27:00,72.9,70.3,29.95,ENE,61,3.0,4.0,92,0.00,,,0.00,meteohub,2013-10-03 09:27:00,
2013-10-03 05:32:00,72.9,70.3,29.95,East,85,2.0,5.0,92,0.00,,,0.00,meteohub,2013-10-03 09:32:00,
2013-10-03 05:42:00,72.9,70.3,29.95,ENE,63,1.0,5.0,92,0.00,,,0.00,meteohub,2013-10-03 09:42:00,
2013-10-03 05:47:00,72.9,70.3,29.95,NE,55,1.0,4.0,92,0.00,,,0.00,meteohub,2013-10-03 09:47:00,
2013-10-03 05:52:00,72.9,70.3,29.95,ENE,65,1.0,5.0,92,0.00,,,0.00,meteohub,2013-10-03 09:52:00,
2013-10-03 05:57:00,72.9,70.3,29.96,East,86,3.0,5.0,92,0.00,,,0.00,meteohub,2013-10-03 09:57:00,
2013-10-03 06:02:00,72.9,70.3,29.95,NE,49,1.0,5.0,92,0.00,,,0.00,meteohub,2013-10-03 10:02:00,
2013-10-03 06:07:00,73.0,70.5,29.95,NE,36,2.0,5.0,92,0.00,,,0.00,meteohub,2013-10-03 10:07:00,
2013-10-03 06:12:00,72.9,70.3,29.95,NE,49,2.0,6.0,92,0.00,,,0.00,meteohub,2013-10-03 10:12:00,
2013-10-03 06:17:00,72.9,70.2,29.96,ENE,65,0.0,6.0,91,0.00,,,0.00,meteohub,2013-10-03 10:17:00,
2013-10-03 06:22:00,72.9,70.2,29.96,ENE,62,1.0,6.0,91,0.00,,,0.00,meteohub,2013-10-03 10:22:00,
2013-10-03 06:27:00,72.9,70.2,29.96,East,92,6.0,6.0,91,0.00,,,0.00,meteohub,2013-10-03 10:27:00,
2013-10-03 06:32:00,72.7,70.0,29.96,NE,51,1.0,6.0,91,0.00,,,0.00,meteohub,2013-10-03 10:32:00,
2013-10-03 06:37:00,72.7,70.0,29.96,NE,42,1.0,6.0,91,0.00,,,0.00,meteohub,2013-10-03 10:37:00,
2013-10-03 06:42:00,72.7,70.0,29.96,ENE,63,2.0,6.0,91,0.00,,,0.00,meteohub,2013-10-03 10:42:00,
2013-10-03 06:47:00,72.7,70.0,29.96,ENE,69,1.0,5.0,91,0.00,,,0.00,meteohub,2013-10-03 10:47:00,
2013-10-03 06:52:00,72.7,70.0,29.97,NE,53,3.0,8.0,91,0.00,,,0.00,meteohub,2013-10-03 10:52:00,
2013-10-03 06:57:00,72.7,70.0,29.97,ENE,65,0.0,8.0,91,0.00,,,0.00,meteohub,2013-10-03 10:57:00,
2013-10-03 07:02:00,72.5,69.8,29.97,ENE,74,0.0,8.0,91,0.00,,,0.00,meteohub,2013-10-03 11:02:00,
2013-10-03 07:07:00,72.5,69.8,29.97,East,89,0.0,6.0,91,0.00,,,0.00,meteohub,2013-10-03 11:07:00,
2013-10-03 07:12:00,72.3,69.6,29.97,East,88,0.0,6.0,91,0.00,,,0.00,meteohub,2013-10-03 11:12:00,
2013-10-03 07:17:00,72.3,69.6,29.97,NE,55,1.0,6.0,91,0.00,,,0.00,meteohub,2013-10-03 11:17:00,
2013-10-03 07:22:00,72.3,69.6,29.97,ENE,76,3.0,4.0,91,0.00,,,0.00,meteohub,2013-10-03 11:22:00,
2013-10-03 07:27:00,72.3,69.6,29.98,ENE,72,0.0,4.0,91,0.00,,,0.00,meteohub,2013-10-03 11:27:00,
2013-10-03 07:32:00,72.1,69.4,29.98,East,88,1.0,4.0,91,0.00,,,0.00,meteohub,2013-10-03 11:32:00,
2013-10-03 07:37:00,72.1,69.4,29.98,ENE,63,3.0,3.0,91,0.00,,,0.00,meteohub,2013-10-03 11:37:00,
2013-10-03 07:42:00,72.3,69.6,29.98,ENE,74,3.0,3.0,91,0.00,,,0.00,meteohub,2013-10-03 11:42:00,
2013-10-03 07:47:00,72.3,69.6,29.98,ENE,62,1.0,4.0,91,0.00,,,0.00,meteohub,2013-10-03 11:47:00,
2013-10-03 07:52:00,72.7,69.6,29.98,East,86,0.0,5.0,90,0.00,,,0.00,meteohub,2013-10-03 11:52:00,
2013-10-03 07:57:00,72.9,69.8,29.98,ESE,106,0.0,5.0,90,0.00,,,0.00,meteohub,2013-10-03 11:57:00,
2013-10-03 08:02:00,73.2,70.2,29.98,ESE,105,2.0,5.0,90,0.00,,,0.00,meteohub,2013-10-03 12:02:00,
2013-10-03 08:07:00,73.6,70.2,29.99,East,82,0.0,5.0,89,0.00,,,0.00,meteohub,2013-10-03 12:07:00,
2013-10-03 08:12:00,73.9,70.2,29.99,East,88,1.0,5.0,88,0.00,,,0.00,meteohub,2013-10-03 12:12:00,
2013-10-03 08:17:00,74.1,70.3,29.99,East,80,5.0,5.0,88,0.00,,,0.00,meteohub,2013-10-03 12:17:00,
2013-10-03 08:22:00,74.5,70.3,29.99,East,86,2.0,6.0,87,0.00,,,0.00,meteohub,2013-10-03 12:22:00,
2013-10-03 08:27:00,74.7,70.5,29.99,East,87,5.0,7.0,87,0.00,,,0.00,meteohub,2013-10-03 12:27:00,
2013-10-03 08:32:00,74.8,70.3,29.99,ENE,68,5.0,10.0,86,0.00,,,0.00,meteohub,2013-10-03 12:32:00,
2013-10-03 08:37:00,75.2,70.7,30.00,East,92,2.0,10.0,86,0.00,,,0.00,meteohub,2013-10-03 12:37:00,
2013-10-03 08:42:00,75.6,71.1,30.00,ENE,76,2.0,10.0,86,0.00,,,0.00,meteohub,2013-10-03 12:42:00,
2013-10-03 08:47:00,75.7,70.9,30.00,East,96,6.0,8.0,85,0.00,,,0.00,meteohub,2013-10-03 12:47:00,
2013-10-03 08:52:00,75.9,70.7,30.00,ENE,69,2.0,8.0,84,0.00,,,0.00,meteohub,2013-10-03 12:52:00,
2013-10-03 08:57:00,76.3,71.4,30.00,NE,44,0.0,8.0,85,0.00,,,0.00,meteohub,2013-10-03 12:57:00,
2013-10-03 09:02:00,76.6,71.4,30.00,East,101,6.0,8.0,84,0.00,,,0.00,meteohub,2013-10-03 13:02:00,
2013-10-03 09:07:00,77.0,71.4,30.01,East,82,1.0,7.0,83,0.00,,,0.00,meteohub,2013-10-03 13:07:00,
2013-10-03 09:12:00,77.4,71.4,30.01,East,80,3.0,7.0,82,0.00,,,0.00,meteohub,2013-10-03 13:12:00,
2013-10-03 09:17:00,77.7,71.8,30.01,East,92,6.0,7.0,82,0.00,,,0.00,meteohub,2013-10-03 13:17:00,
2013-10-03 09:22:00,77.9,71.2,30.01,ESE,105,4.0,7.0,80,0.00,,,0.00,meteohub,2013-10-03 13:22:00,
2013-10-03 09:27:00,78.1,71.8,30.02,East,92,3.0,9.0,81,0.00,,,0.00,meteohub,2013-10-03 13:27:00,
2013-10-03 09:32:00,78.3,71.6,30.02,NE,49,0.0,9.0,80,0.00,,,0.00,meteohub,2013-10-03 13:32:00,
2013-10-03 09:37:00,78.3,71.2,30.02,East,101,8.0,9.0,79,0.00,,,0.00,meteohub,2013-10-03 13:37:00,
2013-10-03 09:42:00,78.4,71.8,30.03,ENE,75,5.0,9.0,80,0.00,,,0.00,meteohub,2013-10-03 13:42:00,
2013-10-03 09:47:00,79.0,72.3,30.03,East,80,6.0,9.0,80,0.00,,,0.00,meteohub,2013-10-03 13:47:00,
2013-10-03 09:52:00,79.3,72.0,30.03,ESE,114,3.0,9.0,78,0.00,,,0.00,meteohub,2013-10-03 13:52:00,
2013-10-03 09:57:00,79.5,71.6,30.03,ENE,78,4.0,9.0,77,0.00,,,0.00,meteohub,2013-10-03 13:57:00,
2013-10-03 10:02:00,79.5,71.6,30.03,SE,128,3.0,14.0,77,0.00,,,0.00,meteohub,2013-10-03 14:02:00,
2013-10-03 10:07:00,79.7,71.8,30.03,NE,46,4.0,14.0,77,0.00,,,0.00,meteohub,2013-10-03 14:07:00,
2013-10-03 10:12:00,80.2,72.3,30.03,East,85,2.0,14.0,77,0.00,,,0.00,meteohub,2013-10-03 14:12:00,
2013-10-03 10:17:00,80.8,71.8,30.03,East,98,7.0,10.0,74,0.00,,,0.00,meteohub,2013-10-03 14:17:00,
2013-10-03 10:22:00,80.6,72.0,30.03,East,94,6.0,11.0,75,0.00,,,0.00,meteohub,2013-10-03 14:22:00,
2013-10-03 10:27:00,80.4,71.4,30.03,East,80,5.0,11.0,74,0.00,,,0.00,meteohub,2013-10-03 14:27:00,
2013-10-03 10:32:00,80.6,71.1,30.03,ESE,110,7.0,11.0,73,0.00,,,0.00,meteohub,2013-10-03 14:32:00,
2013-10-03 10:37:00,80.8,71.8,30.04,East,98,3.0,10.0,74,0.00,,,0.00,meteohub,2013-10-03 14:37:00,
2013-10-03 10:42:00,80.8,71.2,30.04,SSE,147,3.0,13.0,73,0.00,,,0.00,meteohub,2013-10-03 14:42:00,
2013-10-03 10:47:00,81.0,71.4,30.04,ESE,121,7.0,13.0,73,0.00,,,0.00,meteohub,2013-10-03 14:47:00,
2013-10-03 10:52:00,81.0,71.4,30.04,ENE,76,7.0,13.0,73,0.00,,,0.00,meteohub,2013-10-03 14:52:00,
2013-10-03 10:57:00,81.7,71.8,30.03,ESE,104,4.0,13.0,72,0.00,,,0.00,meteohub,2013-10-03 14:57:00,
2013-10-03 11:02:00,81.9,71.1,30.04,East,88,2.0,13.0,70,0.00,,,0.00,meteohub,2013-10-03 15:02:00,
2013-10-03 11:07:00,82.0,71.2,30.03,ESE,121,1.0,12.0,70,0.00,,,0.00,meteohub,2013-10-03 15:07:00,
2013-10-03 11:12:00,82.0,70.9,30.04,ESE,122,8.0,12.0,69,0.00,,,0.00,meteohub,2013-10-03 15:12:00,
2013-10-03 11:17:00,82.2,71.4,30.03,ESE,105,4.0,12.0,70,0.00,,,0.00,meteohub,2013-10-03 15:17:00,
2013-10-03 11:22:00,82.8,71.6,30.03,East,82,3.0,11.0,69,0.00,,,0.00,meteohub,2013-10-03 15:22:00,
2013-10-03 11:27:00,83.1,72.0,30.03,East,89,6.0,10.0,69,0.00,,,0.00,meteohub,2013-10-03 15:27:00,
2013-10-03 11:32:00,82.9,70.9,30.03,ESE,123,4.0,10.0,67,0.00,,,0.00,meteohub,2013-10-03 15:32:00,
2013-10-03 11:37:00,83.1,71.4,30.03,SSE,151,4.0,10.0,68,0.00,,,0.00,meteohub,2013-10-03 15:37:00,
2013-10-03 11:42:00,83.1,71.4,30.03,ESE,114,10.0,10.0,68,0.00,,,0.00,meteohub,2013-10-03 15:42:00,
2013-10-03 11:47:00,83.1,72.0,30.03,ESE,107,2.0,10.0,69,0.00,,,0.00,meteohub,2013-10-03 15:47:00,
2013-10-03 11:52:00,83.1,71.4,30.03,ENE,76,3.0,10.0,68,0.00,,,0.00,meteohub,2013-10-03 15:52:00,
2013-10-03 11:57:00,83.7,72.3,30.03,ESE,105,1.0,10.0,69,0.00,,,0.00,meteohub,2013-10-03 15:57:00,
2013-10-03 12:02:00,83.8,72.1,30.03,ESE,107,9.0,10.0,68,0.00,,,0.00,meteohub,2013-10-03 16:02:00,
2013-10-03 12:07:00,83.7,72.3,30.03,SSE,150,6.0,14.0,69,0.00,,,0.00,meteohub,2013-10-03 16:07:00,
2013-10-03 12:12:00,83.8,72.1,30.02,SE,134,3.0,14.0,68,0.00,,,0.00,meteohub,2013-10-03 16:12:00,
2013-10-03 12:17:00,84.0,72.0,30.02,SE,126,6.0,13.0,67,0.00,,,0.00,meteohub,2013-10-03 16:17:00,
2013-10-03 12:22:00,84.2,72.5,30.02,ESE,103,7.0,11.0,68,0.00,,,0.00,meteohub,2013-10-03 16:22:00,
2013-10-03 12:27:00,84.0,72.0,30.02,SE,135,1.0,11.0,67,0.00,,,0.00,meteohub,2013-10-03 16:27:00,
2013-10-03 12:32:00,84.4,71.8,30.02,ESE,113,7.0,10.0,66,0.00,,,0.00,meteohub,2013-10-03 16:32:00,
2013-10-03 12:37:00,85.1,72.5,30.02,SSE,148,2.0,10.0,66,0.00,,,0.00,meteohub,2013-10-03 16:37:00,
2013-10-03 12:42:00,85.1,72.5,30.02,East,84,5.0,10.0,66,0.00,,,0.00,meteohub,2013-10-03 16:42:00,
2013-10-03 12:47:00,85.3,71.8,30.01,South,179,4.0,11.0,64,0.00,,,0.00,meteohub,2013-10-03 16:47:00,
2013-10-03 12:52:00,85.5,72.9,30.01,East,95,1.0,11.0,66,0.00,,,0.00,meteohub,2013-10-03 16:52:00,
2013-10-03 12:57:00,85.3,71.8,30.01,SE,136,2.0,11.0,64,0.00,,,0.00,meteohub,2013-10-03 16:57:00,
2013-10-03 13:02:00,85.1,71.1,30.01,SE,146,8.0,10.0,63,0.00,,,0.00,meteohub,2013-10-03 17:02:00,
2013-10-03 13:07:00,85.1,72.0,30.01,SE,127,7.0,10.0,65,0.00,,,0.00,meteohub,2013-10-03 17:07:00,
2013-10-03 13:12:00,85.1,72.0,30.01,South,169,1.0,10.0,65,0.00,,,0.00,meteohub,2013-10-03 17:12:00,
2013-10-03 13:17:00,85.3,72.1,30.01,SE,139,3.0,10.0,65,0.00,,,0.00,meteohub,2013-10-03 17:17:00,
2013-10-03 13:22:00,85.8,72.1,30.01,South,171,5.0,9.0,64,0.00,,,0.00,meteohub,2013-10-03 17:22:00,
2013-10-03 13:27:00,85.6,72.1,30.01,SE,130,5.0,9.0,64,0.00,,,0.00,meteohub,2013-10-03 17:27:00,
2013-10-03 13:32:00,85.6,72.1,30.00,SE,146,1.0,10.0,64,0.00,,,0.00,meteohub,2013-10-03 17:32:00,
2013-10-03 13:37:00,85.8,71.8,30.00,SSE,153,5.0,10.0,63,0.00,,,0.00,meteohub,2013-10-03 17:37:00,
2013-10-03 13:42:00,85.8,71.2,30.00,SSE,160,3.0,9.0,62,0.00,,,0.00,meteohub,2013-10-03 17:42:00,
2013-10-03 13:47:00,86.0,71.4,30.00,SSE,153,4.0,11.0,62,0.00,,,0.00,meteohub,2013-10-03 17:47:00,
2013-10-03 13:52:00,86.2,71.1,30.00,South,171,5.0,11.0,61,0.00,,,0.00,meteohub,2013-10-03 17:52:00,
2013-10-03 13:57:00,85.8,71.2,30.00,SSE,158,6.0,10.0,62,0.00,,,0.00,meteohub,2013-10-03 17:57:00,
2013-10-03 14:02:00,85.8,71.2,30.00,SE,142,8.0,10.0,62,0.00,,,0.00,meteohub,2013-10-03 18:02:00,
2013-10-03 14:07:00,85.6,71.1,30.00,South,190,5.0,11.0,62,0.00,,,0.00,meteohub,2013-10-03 18:07:00,
2013-10-03 14:12:00,86.5,72.5,29.99,South,188,2.0,11.0,63,0.00,,,0.00,meteohub,2013-10-03 18:12:00,
2013-10-03 14:17:00,87.3,72.1,29.99,SE,138,4.0,11.0,61,0.00,,,0.00,meteohub,2013-10-03 18:17:00,
2013-10-03 14:22:00,87.3,71.6,29.99,SSW,205,2.0,10.0,60,0.00,,,0.00,meteohub,2013-10-03 18:22:00,
2013-10-03 14:27:00,87.4,70.9,29.99,ESE,109,4.0,10.0,58,0.00,,,0.00,meteohub,2013-10-03 18:27:00,
2013-10-03 14:32:00,87.4,71.8,29.99,SSW,202,0.0,7.0,60,0.00,,,0.00,meteohub,2013-10-03 18:32:00,
2013-10-03 14:37:00,87.4,71.4,29.98,SSE,168,4.0,8.0,59,0.00,,,0.00,meteohub,2013-10-03 18:37:00,
2013-10-03 14:42:00,87.3,71.6,29.98,SSE,150,7.0,8.0,60,0.00,,,0.00,meteohub,2013-10-03 18:42:00,
2013-10-03 14:47:00,86.7,71.6,29.98,East,88,5.0,10.0,61,0.00,,,0.00,meteohub,2013-10-03 18:47:00,
2013-10-03 14:52:00,86.9,71.4,29.98,SSE,164,1.0,10.0,60,0.00,,,0.00,meteohub,2013-10-03 18:52:00,
2013-10-03 14:57:00,87.3,71.6,29.97,South,171,5.0,10.0,60,0.00,,,0.00,meteohub,2013-10-03 18:57:00,
2013-10-03 15:02:00,87.3,71.2,29.97,ENE,67,1.0,10.0,59,0.00,,,0.00,meteohub,2013-10-03 19:02:00,
2013-10-03 15:07:00,87.1,71.1,29.97,SSW,202,2.0,8.0,59,0.00,,,0.00,meteohub,2013-10-03 19:07:00,
2013-10-03 15:12:00,87.6,72.5,29.97,SE,145,6.0,8.0,61,0.00,,,0.00,meteohub,2013-10-03 19:12:00,
2013-10-03 15:17:00,88.0,71.8,29.97,SSE,153,5.0,8.0,59,0.00,,,0.00,meteohub,2013-10-03 19:17:00,
2013-10-03 15:22:00,88.0,71.8,29.97,South,184,9.0,9.0,59,0.00,,,0.00,meteohub,2013-10-03 19:22:00,
2013-10-03 15:27:00,87.6,71.6,29.97,SSW,193,7.0,10.0,59,0.00,,,0.00,meteohub,2013-10-03 19:27:00,
2013-10-03 15:32:00,87.3,71.2,29.96,South,190,9.0,10.0,59,0.00,,,0.00,meteohub,2013-10-03 19:32:00,
2013-10-03 15:37:00,87.6,71.1,29.96,SE,131,1.0,10.0,58,0.00,,,0.00,meteohub,2013-10-03 19:37:00,
2013-10-03 15:42:00,87.6,71.6,29.96,SSW,209,3.0,10.0,59,0.00,,,0.00,meteohub,2013-10-03 19:42:00,
2013-10-03 15:47:00,88.0,71.4,29.96,South,186,1.0,10.0,58,0.00,,,0.00,meteohub,2013-10-03 19:47:00,
2013-10-03 15:52:00,88.5,71.8,29.96,East,94,1.0,7.0,58,0.00,,,0.00,meteohub,2013-10-03 19:52:00,
2013-10-03 15:57:00,88.5,71.8,29.96,SSE,163,2.0,7.0,58,0.00,,,0.00,meteohub,2013-10-03 19:57:00,
2013-10-03 16:02:00,88.7,71.1,29.96,SSE,160,5.0,7.0,56,0.00,,,0.00,meteohub,2013-10-03 20:02:00,
2013-10-03 16:07:00,88.2,71.6,29.96,SE,132,4.0,7.0,58,0.00,,,0.00,meteohub,2013-10-03 20:07:00,
2013-10-03 16:12:00,87.6,71.6,29.96,South,177,6.0,8.0,59,0.00,,,0.00,meteohub,2013-10-03 20:12:00,
2013-10-03 16:17:00,87.6,72.5,29.96,South,180,0.0,8.0,61,0.00,,,0.00,meteohub,2013-10-03 20:17:00,
2013-10-03 16:22:00,88.2,71.6,29.96,South,177,2.0,8.0,58,0.00,,,0.00,meteohub,2013-10-03 20:22:00,
2013-10-03 16:27:00,88.2,71.6,29.96,SSE,167,1.0,7.0,58,0.00,,,0.00,meteohub,2013-10-03 20:27:00,
2013-10-03 16:32:00,88.2,72.0,29.96,SW,229,2.0,5.0,59,0.00,,,0.00,meteohub,2013-10-03 20:32:00,
2013-10-03 16:37:00,87.1,72.5,29.96,West,281,7.0,7.0,62,0.00,,,0.00,meteohub,2013-10-03 20:37:00,
2013-10-03 16:42:00,86.2,73.0,29.96,West,279,1.0,7.0,65,0.00,,,0.00,meteohub,2013-10-03 20:42:00,
2013-10-03 16:47:00,86.2,73.0,29.96,NNW,342,2.0,7.0,65,0.00,,,0.00,meteohub,2013-10-03 20:47:00,
2013-10-03 16:52:00,86.4,72.7,29.96,NW,323,2.0,7.0,64,0.00,,,0.00,meteohub,2013-10-03 20:52:00,
2013-10-03 16:57:00,86.4,73.2,29.95,West,269,6.0,8.0,65,0.01,,,0.01,meteohub,2013-10-03 20:57:00,
2013-10-03 17:02:00,86.2,73.0,29.95,NW,313,9.0,9.0,65,0.01,,,0.01,meteohub,2013-10-03 21:02:00,
2013-10-03 17:07:00,86.2,73.9,29.95,WNW,285,9.0,9.0,67,0.01,,,0.01,meteohub,2013-10-03 21:07:00,
2013-10-03 17:12:00,86.2,73.0,29.95,NNW,335,1.0,11.0,65,0.01,,,0.01,meteohub,2013-10-03 21:12:00,
2013-10-03 17:17:00,86.4,73.6,29.96,NW,323,3.0,11.0,66,0.01,,,0.01,meteohub,2013-10-03 21:17:00,
2013-10-03 17:22:00,86.5,73.8,29.96,North,0,5.0,11.0,66,0.01,,,0.01,meteohub,2013-10-03 21:22:00,
2013-10-03 17:27:00,86.5,73.8,29.96,NNW,328,0.0,7.0,66,0.01,,,0.01,meteohub,2013-10-03 21:27:00,
2013-10-03 17:32:00,86.5,73.4,29.96,WNW,287,2.0,7.0,65,0.01,,,0.01,meteohub,2013-10-03 21:32:00,
2013-10-03 17:37:00,86.4,73.6,29.96,North,9,3.0,7.0,66,0.01,,,0.01,meteohub,2013-10-03 21:37:00,
2013-10-03 17:42:00,86.0,73.8,29.96,WNW,300,4.0,8.0,67,0.01,,,0.01,meteohub,2013-10-03 21:42:00,
2013-10-03 17:47:00,85.6,73.4,29.96,NW,309,3.0,8.0,67,0.01,,,0.01,meteohub,2013-10-03 21:47:00,
2013-10-03 17:52:00,85.5,73.8,29.96,North,0,4.0,8.0,68,0.01,,,0.01,meteohub,2013-10-03 21:52:00,
2013-10-03 17:57:00,85.1,73.8,29.96,North,351,4.0,7.0,69,0.00,,,0.01,meteohub,2013-10-03 21:57:00,
2013-10-03 18:02:00,84.7,73.4,29.96,North,5,3.0,7.0,69,0.00,,,0.01,meteohub,2013-10-03 22:02:00,
2013-10-03 18:07:00,84.6,73.8,29.96,North,355,3.0,7.0,70,0.00,,,0.01,meteohub,2013-10-03 22:07:00,
2013-10-03 18:12:00,84.4,73.9,29.96,North,355,1.0,6.0,71,0.00,,,0.01,meteohub,2013-10-03 22:12:00,
2013-10-03 18:17:00,84.4,73.9,29.96,North,355,1.0,6.0,71,0.00,,,0.01,meteohub,2013-10-03 22:17:00,
2013-10-03 18:22:00,84.2,73.8,29.96,NNW,342,0.0,4.0,71,0.00,,,0.01,meteohub,2013-10-03 22:22:00,
2013-10-03 18:27:00,83.8,73.4,29.96,NW,317,2.0,4.0,71,0.00,,,0.01,meteohub,2013-10-03 22:27:00,
2013-10-03 18:32:00,83.7,73.6,29.96,NW,314,1.0,4.0,72,0.00,,,0.01,meteohub,2013-10-03 22:32:00,
2013-10-03 18:37:00,83.1,73.2,29.97,NW,314,2.0,4.0,72,0.00,,,0.01,meteohub,2013-10-03 22:37:00,
2013-10-03 18:42:00,82.9,73.4,29.97,NW,314,3.0,5.0,73,0.00,,,0.01,meteohub,2013-10-03 22:42:00,
2013-10-03 18:47:00,82.8,73.2,29.96,NNW,337,3.0,6.0,73,0.00,,,0.01,meteohub,2013-10-03 22:47:00,
2013-10-03 18:52:00,82.8,73.2,29.96,NNW,341,6.0,6.0,73,0.00,,,0.01,meteohub,2013-10-03 22:52:00,
2013-10-03 18:57:00,82.6,73.0,29.96,NNW,332,3.0,7.0,73,0.00,,,0.01,meteohub,2013-10-03 22:57:00,
2013-10-03 19:02:00,82.4,73.2,29.97,North,5,3.0,7.0,74,0.00,,,0.01,meteohub,2013-10-03 23:02:00,
2013-10-03 19:07:00,82.2,73.6,29.97,NW,325,3.0,7.0,75,0.00,,,0.01,meteohub,2013-10-03 23:07:00,
2013-10-03 19:12:00,82.0,73.8,29.97,NNW,336,1.0,6.0,76,0.00,,,0.01,meteohub,2013-10-03 23:12:00,
2013-10-03 19:17:00,81.9,73.6,29.97,North,351,4.0,6.0,76,0.00,,,0.01,meteohub,2013-10-03 23:17:00,
2013-10-03 19:22:00,81.7,73.8,29.97,NNW,336,2.0,6.0,77,0.00,,,0.01,meteohub,2013-10-03 23:22:00,
2013-10-03 19:27:00,81.3,73.8,29.97,NW,314,0.0,7.0,78,0.00,,,0.01,meteohub,2013-10-03 23:27:00,
2013-10-03 19:32:00,81.1,73.6,29.97,NW,324,3.0,7.0,78,0.00,,,0.01,meteohub,2013-10-03 23:32:00,
2013-10-03 19:37:00,81.0,73.4,29.97,NNW,342,2.0,6.0,78,0.00,,,0.01,meteohub,2013-10-03 23:37:00,
2013-10-03 19:42:00,81.0,73.4,29.97,NNW,344,1.0,5.0,78,0.00,,,0.01,meteohub,2013-10-03 23:42:00,
2013-10-03 19:47:00,80.8,73.2,29.98,NNW,331,1.0,5.0,78,0.00,,,0.01,meteohub,2013-10-03 23:47:00,
2013-10-03 19:52:00,80.8,73.6,29.98,NW,319,1.0,7.0,79,0.00,,,0.01,meteohub,2013-10-03 23:52:00,
2013-10-03 19:57:00,80.6,73.4,29.98,NW,317,3.0,7.0,79,0.00,,,0.01,meteohub,2013-10-03 23:57:00,
2013-10-03 20:02:00,80.4,73.2,29.98,NW,318,1.0,7.0,79,0.00,,,0.01,meteohub,2013-10-04 00:02:00,
2013-10-03 20:07:00,80.4,73.2,29.98,NW,325,1.0,5.0,79,0.00,,,0.01,meteohub,2013-10-04 00:07:00,
2013-10-03 20:12:00,80.4,73.2,29.98,NNW,332,2.0,7.0,79,0.00,,,0.01,meteohub,2013-10-04 00:12:00,
2013-10-03 20:17:00,80.2,73.6,29.98,North,355,2.0,7.0,80,0.00,,,0.01,meteohub,2013-10-04 00:17:00,
2013-10-03 20:22:00,80.2,73.6,29.98,North,351,2.0,7.0,80,0.00,,,0.01,meteohub,2013-10-04 00:22:00,
2013-10-03 20:32:00,80.2,73.9,29.98,North,355,0.0,7.0,81,0.00,,,0.01,meteohub,2013-10-04 00:32:00,
2013-10-03 20:37:00,80.1,73.8,29.98,North,355,1.0,7.0,81,0.00,,,0.01,meteohub,2013-10-04 00:37:00,
2013-10-03 20:42:00,80.1,74.1,29.98,NNW,343,1.0,7.0,82,0.00,,,0.01,meteohub,2013-10-04 00:42:00,
2013-10-03 20:47:00,79.9,73.9,29.98,NNW,333,2.0,5.0,82,0.00,,,0.01,meteohub,2013-10-04 00:47:00,
2013-10-03 20:52:00,79.9,73.9,29.98,NNW,348,4.0,6.0,82,0.00,,,0.01,meteohub,2013-10-04 00:52:00,
2013-10-03 20:57:00,79.9,74.3,29.98,North,350,4.0,6.0,83,0.00,,,0.01,meteohub,2013-10-04 00:57:00,
2013-10-03 21:02:00,79.9,74.3,29.98,North,355,4.0,6.0,83,0.00,,,0.01,meteohub,2013-10-04 01:02:00,
2013-10-03 21:07:00,79.7,74.1,29.98,North,355,4.0,6.0,83,0.00,,,0.01,meteohub,2013-10-04 01:07:00,
2013-10-03 21:12:00,79.7,74.5,29.99,North,0,3.0,6.0,84,0.00,,,0.01,meteohub,2013-10-04 01:12:00,
2013-10-03 21:17:00,79.5,74.3,29.99,North,0,1.0,5.0,84,0.00,,,0.01,meteohub,2013-10-04 01:17:00,
2013-10-03 21:22:00,79.5,74.3,29.99,North,5,2.0,6.0,84,0.01,,,0.02,meteohub,2013-10-04 01:22:00,
2013-10-03 21:27:00,79.7,74.8,29.99,North,355,5.0,6.0,85,0.01,,,0.02,meteohub,2013-10-04 01:27:00,
2013-10-03 21:32:00,79.5,74.7,29.99,North,0,2.0,7.0,85,0.01,,,0.02,meteohub,2013-10-04 01:32:00,
2013-10-03 21:37:00,79.5,74.7,29.99,North,0,2.0,7.0,85,0.01,,,0.02,meteohub,2013-10-04 01:37:00,
2013-10-03 21:42:00,79.5,74.7,29.99,North,355,4.0,6.0,85,0.01,,,0.02,meteohub,2013-10-04 01:42:00,
2013-10-03 21:47:00,79.5,74.7,30.00,North,0,3.0,6.0,85,0.01,,,0.02,meteohub,2013-10-04 01:47:00,
2013-10-03 21:52:00,79.5,75.0,29.99,North,355,4.0,6.0,86,0.01,,,0.02,meteohub,2013-10-04 01:52:00,
2013-10-03 21:57:00,79.5,75.0,29.99,North,355,2.0,6.0,86,0.01,,,0.02,meteohub,2013-10-04 01:57:00,
2013-10-03 22:02:00,79.3,74.8,30.00,North,0,4.0,6.0,86,0.01,,,0.02,meteohub,2013-10-04 02:02:00,
2013-10-03 22:07:00,79.3,74.8,30.00,North,0,3.0,6.0,86,0.01,,,0.02,meteohub,2013-10-04 02:07:00,
2013-10-03 22:12:00,79.3,74.8,30.00,North,9,1.0,6.0,86,0.01,,,0.02,meteohub,2013-10-04 02:12:00,
2013-10-03 22:17:00,79.3,75.2,30.00,North,9,1.0,5.0,87,0.00,,,0.02,meteohub,2013-10-04 02:17:00,
2013-10-03 22:22:00,79.2,75.0,30.00,North,351,2.0,5.0,87,0.00,,,0.02,meteohub,2013-10-04 02:22:00,
2013-10-03 22:27:00,79.2,75.0,30.00,North,0,5.0,6.0,87,0.00,,,0.02,meteohub,2013-10-04 02:27:00,
2013-10-03 22:32:00,79.2,75.0,30.00,North,5,3.0,7.0,87,0.00,,,0.02,meteohub,2013-10-04 02:32:00,
2013-10-03 22:37:00,79.0,74.8,30.00,North,5,2.0,7.0,87,0.00,,,0.02,meteohub,2013-10-04 02:37:00,
2013-10-03 22:42:00,79.0,74.8,30.00,North,9,1.0,7.0,87,0.00,,,0.02,meteohub,2013-10-04 02:42:00,
2013-10-03 22:47:00,79.0,74.8,30.01,NNE,13,1.0,6.0,87,0.00,,,0.02,meteohub,2013-10-04 02:47:00,
2013-10-03 22:52:00,79.0,74.8,30.01,NNE,30,5.0,6.0,87,0.00,,,0.02,meteohub,2013-10-04 02:52:00,
2013-10-03 22:57:00,78.6,74.8,30.01,NE,37,4.0,5.0,88,0.00,,,0.02,meteohub,2013-10-04 02:57:00,
2013-10-03 23:02:00,78.4,74.7,30.01,NE,38,3.0,6.0,88,0.00,,,0.02,meteohub,2013-10-04 03:02:00,
2013-10-03 23:07:00,78.3,74.7,30.01,NE,36,3.0,6.0,89,0.00,,,0.02,meteohub,2013-10-04 03:07:00,
2013-10-03 23:12:00,78.3,74.7,30.01,NE,42,2.0,6.0,89,0.00,,,0.02,meteohub,2013-10-04 03:12:00,
2013-10-03 23:17:00,78.1,74.5,30.01,NE,41,2.0,6.0,89,0.00,,,0.02,meteohub,2013-10-04 03:17:00,
2013-10-03 23:22:00,78.1,74.5,30.01,NE,41,1.0,6.0,89,0.00,,,0.02,meteohub,2013-10-04 03:22:00,
2013-10-03 23:27:00,78.1,74.5,30.01,NNE,32,1.0,5.0,89,0.00,,,0.02,meteohub,2013-10-04 03:27:00,
2013-10-03 23:32:00,77.9,74.5,30.01,NNE,26,2.0,5.0,89,0.00,,,0.02,meteohub,2013-10-04 03:32:00,
2013-10-03 23:37:00,77.9,74.5,30.01,NNE,26,1.0,3.0,89,0.00,,,0.02,meteohub,2013-10-04 03:37:00,
2013-10-03 23:42:00,77.7,74.3,30.01,NNE,26,0.0,3.0,89,0.00,,,0.02,meteohub,2013-10-04 03:42:00,
2013-10-03 23:47:00,77.7,74.3,30.01,NNE,26,3.0,3.0,89,0.00,,,0.02,meteohub,2013-10-04 03:47:00,
2013-10-03 23:52:00,77.7,74.3,30.01,NNE,26,2.0,3.0,89,0.00,,,0.02,meteohub,2013-10-04 03:52:00,
2013-10-03 23:57:00,77.7,74.3,30.01,NNE,26,0.0,3.0,89,0.00,,,0.02,meteohub,2013-10-04 03:57:00,